Pretty Hana — DSQJ5 — position and weather

sailwx.info

Track history (hours):
 
Tides and Currents Weather Stations Pressure Air Temp Water Temp Dewpoint Dewpoint Depression Visibility Wind Speed Wind Dir Waves Ship Positions

Pretty Hana

Last reported at 2016-Aug-17 13:23 UTC. Time now 2016-Aug-25 09:41 UTC.
Position N 35°08' E 139°43'.

Length 64 m; draft 3.5 m.

Type: Ship (hazmat cat B). MMSI: 441600000.

Date/timePositionNaut miles runAvg speedWind from/ knotsBaromVisibWave heightAir tempDewpointWater temp
2016-Aug-17 13:23N 35°08' E 139°43'810.4
2016-Aug-17 12:33N 35°16' E 139°45'9 8.8
2016-Aug-17 11:33N 35°25' E 139°44'9 9.5
2016-Aug-17 10:33N 35°31' E 139°54'8 8.1
2016-Aug-17 09:33N 35°34' E 140°03'3 2.3
2016-Aug-17 08:20N 35°36' E 140°05'0 0.0
2016-Aug-17 07:32N 35°36' E 140°05'0 0.0
2016-Aug-17 03:32N 35°36' E 140°05'0 0.0
2016-Aug-17 02:32N 35°36' E 140°05'0 0.0
2016-Aug-17 01:29N 35°36' E 140°05'2 1.9
2016-Aug-17 00:33N 35°35' E 140°04'1 0.6
2016-Aug-16 23:32N 35°34' E 140°04'0 0.0
2016-Aug-16 22:28N 35°34' E 140°04'6 6.9
2016-Aug-16 21:33N 35°32' E 139°57'10 9.7
2016-Aug-16 20:33N 35°26' E 139°48'9 8.6
2016-Aug-16 19:33N 35°17' E 139°45'9 9.2
2016-Aug-16 18:33N 35°08' E 139°46'244 7.7
2016-Aug-15 11:03N 34°09' E 134°59'510.4
2016-Aug-15 10:33N 34°14' E 134°59'8 8.2
2016-Aug-15 09:32N 34°22' E 135°01'10 9.8
2016-Aug-15 08:33N 34°29' E 135°10'1010.2
2016-Aug-15 07:33N 34°36' E 135°19'6 5.9
2016-Aug-15 06:29N 34°39' E 135°25'0 0.0
2016-Aug-15 04:29N 34°39' E 135°25'2 2.6
2016-Aug-15 03:33N 34°38' E 135°23'1 1.1
2016-Aug-15 02:26N 34°37' E 135°22'0 0.0
2016-Aug-15 01:26N 34°37' E 135°22'0 0.1
2016-Aug-15 00:33N 34°37' E 135°22'0 0.0
2016-Aug-14 23:32N 34°37' E 135°22'0 0.0
2016-Aug-14 22:32N 34°37' E 135°22'0 0.0
2016-Aug-14 21:20N 34°37' E 135°22'1 0.7
2016-Aug-14 20:33N 34°36' E 135°21'1010.3
2016-Aug-14 19:33N 34°35' E 135°09'1110.2
2016-Aug-14 18:31N 34°36' E 134°56'  
Track history (hours):
 
Tides and Currents Weather Stations Pressure Air Temp Water Temp Dewpoint Dewpoint Depression Visibility Wind Speed Wind Dir Waves Ship Positions

Pretty Hana

Last reported at 2016-Aug-17 13:23 UTC. Time now 2016-Aug-25 09:41 UTC.
Position N 35°08' E 139°43'.

Length 64 m; draft 3.5 m.

Type: Ship (hazmat cat B). MMSI: 441600000.

Date/timePositionNaut miles runAvg speedWind from/ knotsBaromVisibWave heightAir tempDewpointWater temp
2016-Aug-17 13:23N 35°08' E 139°43'810.4
2016-Aug-17 12:33N 35°16' E 139°45'9 8.8
2016-Aug-17 11:33N 35°25' E 139°44'9 9.5
2016-Aug-17 10:33N 35°31' E 139°54'8 8.1
2016-Aug-17 09:33N 35°34' E 140°03'3 2.3
2016-Aug-17 08:20N 35°36' E 140°05'0 0.0
2016-Aug-17 07:32N 35°36' E 140°05'0 0.0
2016-Aug-17 03:32N 35°36' E 140°05'0 0.0
2016-Aug-17 02:32N 35°36' E 140°05'0 0.0
2016-Aug-17 01:29N 35°36' E 140°05'2 1.9
2016-Aug-17 00:33N 35°35' E 140°04'1 0.6
2016-Aug-16 23:32N 35°34' E 140°04'0 0.0
2016-Aug-16 22:28N 35°34' E 140°04'6 6.9
2016-Aug-16 21:33N 35°32' E 139°57'10 9.7
2016-Aug-16 20:33N 35°26' E 139°48'9 8.6
2016-Aug-16 19:33N 35°17' E 139°45'9 9.2
2016-Aug-16 18:33N 35°08' E 139°46'244 7.7
2016-Aug-15 11:03N 34°09' E 134°59'510.4
2016-Aug-15 10:33N 34°14' E 134°59'8 8.2
2016-Aug-15 09:32N 34°22' E 135°01'10 9.8
2016-Aug-15 08:33N 34°29' E 135°10'1010.2
2016-Aug-15 07:33N 34°36' E 135°19'6 5.9
2016-Aug-15 06:29N 34°39' E 135°25'0 0.0
2016-Aug-15 04:29N 34°39' E 135°25'2 2.6
2016-Aug-15 03:33N 34°38' E 135°23'1 1.1
2016-Aug-15 02:26N 34°37' E 135°22'0 0.0
2016-Aug-15 01:26N 34°37' E 135°22'0 0.1
2016-Aug-15 00:33N 34°37' E 135°22'0 0.0
2016-Aug-14 23:32N 34°37' E 135°22'0 0.0
2016-Aug-14 22:32N 34°37' E 135°22'0 0.0
2016-Aug-14 21:20N 34°37' E 135°22'1 0.7
2016-Aug-14 20:33N 34°36' E 135°21'1010.3
2016-Aug-14 19:33N 34°35' E 135°09'1110.2
2016-Aug-14 18:31N 34°36' E 134°56'  

Dump ship's entire track history